createdAt,value
2022-08-26T00:01:30.892Z,20.50
2022-08-26T00:04:18.341Z,20.60
2022-08-26T00:07:06.315Z,20.60
2022-08-26T00:09:54.325Z,20.50
2022-08-26T00:12:43.379Z,20.40
2022-08-26T00:15:30.194Z,20.50
2022-08-26T00:18:22.203Z,20.40
2022-08-26T00:21:10.492Z,20.30
2022-08-26T00:23:57.065Z,20.20
2022-08-26T00:26:44.627Z,20.30
2022-08-26T00:29:34.918Z,20.40
2022-08-26T00:32:23.987Z,20.30
2022-08-26T00:35:11.872Z,20.30
2022-08-26T00:37:59.723Z,20.20
2022-08-26T00:40:48.815Z,20.00
2022-08-26T00:43:47.511Z,20.00
2022-08-26T00:46:39.976Z,19.80
2022-08-26T00:49:39.501Z,19.80
2022-08-26T00:52:27.172Z,19.90
2022-08-26T00:55:20.493Z,20.00
2022-08-26T00:58:09.383Z,20.00
2022-08-26T01:00:56.707Z,20.00
2022-08-26T01:03:47.384Z,20.10
2022-08-26T01:06:34.499Z,20.40
2022-08-26T01:09:23.295Z,20.60
2022-08-26T01:12:09.973Z,20.80
2022-08-26T01:14:57.608Z,21.00
2022-08-26T01:17:44.657Z,20.90
2022-08-26T01:20:39.313Z,20.70
2022-08-26T01:23:33.130Z,20.40
2022-08-26T01:26:23.378Z,20.30
2022-08-26T01:29:15.792Z,20.30
2022-08-26T01:32:03.458Z,20.40
2022-08-26T01:34:52.729Z,20.30
2022-08-26T01:37:40.671Z,19.90
2022-08-26T01:40:32.877Z,20.00
2022-08-26T01:43:24.063Z,20.00
2022-08-26T01:46:12.212Z,20.00
2022-08-26T01:49:02.177Z,19.80
2022-08-26T01:51:52.765Z,19.60
2022-08-26T01:54:39.961Z,19.70
2022-08-26T01:57:29.148Z,19.60
2022-08-26T02:00:16.555Z,19.60
2022-08-26T02:03:17.932Z,19.50
2022-08-26T02:06:09.322Z,19.80
2022-08-26T02:08:58.801Z,19.80
2022-08-26T02:11:45.653Z,19.90
2022-08-26T02:14:37.186Z,19.80
2022-08-26T02:17:35.928Z,19.60
2022-08-26T02:20:23.141Z,19.40
2022-08-26T02:23:09.972Z,19.40
2022-08-26T02:26:02.027Z,19.30
2022-08-26T02:28:53.851Z,19.30
2022-08-26T02:31:42.826Z,19.40
2022-08-26T02:34:32.561Z,19.50
2022-08-26T02:37:19.322Z,19.60
2022-08-26T02:40:11.726Z,19.60
2022-08-26T02:42:59.065Z,19.50
2022-08-26T02:45:47.159Z,19.40
2022-08-26T02:48:36.409Z,19.30
2022-08-26T02:51:23.398Z,19.10
2022-08-26T02:54:10.279Z,19.20
2022-08-26T02:56:57.428Z,19.10
2022-08-26T02:59:44.260Z,19.10
2022-08-26T03:02:31.039Z,19.10
2022-08-26T03:05:21.995Z,19.10
2022-08-26T03:08:11.750Z,19.10
2022-08-26T03:10:59.190Z,19.20
2022-08-26T03:13:48.178Z,19.30
2022-08-26T03:16:36.225Z,19.30
2022-08-26T03:19:25.545Z,19.30
2022-08-26T03:22:14.608Z,19.40
2022-08-26T03:25:02.809Z,19.50
2022-08-26T03:27:49.940Z,19.50
2022-08-26T03:30:44.862Z,19.50
2022-08-26T03:33:32.266Z,19.50
2022-08-26T03:36:19.144Z,19.50
2022-08-26T03:39:08.118Z,19.60
2022-08-26T03:41:55.369Z,19.70
2022-08-26T03:44:42.281Z,19.50
2022-08-26T03:47:28.999Z,19.60
2022-08-26T03:50:17.890Z,19.50
2022-08-26T03:53:12.908Z,19.60
2022-08-26T03:56:01.214Z,19.60
2022-08-26T03:58:48.585Z,19.70
2022-08-26T04:01:37.746Z,19.70
2022-08-26T04:04:24.761Z,19.60
2022-08-26T04:07:12.193Z,19.60
2022-08-26T04:09:59.900Z,19.60
2022-08-26T04:12:48.601Z,19.40
2022-08-26T04:15:35.389Z,19.00
2022-08-26T04:18:22.198Z,18.80
2022-08-26T04:21:09.127Z,18.70
2022-08-26T04:23:58.324Z,18.70
2022-08-26T04:26:45.396Z,18.60
2022-08-26T04:29:34.009Z,18.60
2022-08-26T04:32:21.469Z,18.60
2022-08-26T04:35:09.129Z,18.40
2022-08-26T04:37:56.007Z,18.50
2022-08-26T04:40:46.724Z,18.70
2022-08-26T04:43:33.803Z,19.00
2022-08-26T04:46:24.410Z,18.80
2022-08-26T04:49:11.199Z,18.80
2022-08-26T04:51:57.993Z,19.00
2022-08-26T04:54:44.598Z,18.90
2022-08-26T04:57:31.848Z,18.80
2022-08-26T05:00:18.878Z,18.90
2022-08-26T05:03:07.495Z,19.00
2022-08-26T05:05:57.284Z,19.00
2022-08-26T05:08:44.716Z,18.90
2022-08-26T05:11:31.262Z,19.10
2022-08-26T05:14:19.336Z,19.00
2022-08-26T05:17:06.533Z,18.90
2022-08-26T05:19:55.466Z,18.90
2022-08-26T05:22:42.668Z,18.70
2022-08-26T05:25:29.184Z,18.80
2022-08-26T05:28:18.557Z,18.90
2022-08-26T05:31:13.755Z,19.00
2022-08-26T05:34:04.530Z,19.40
2022-08-26T05:36:53.185Z,19.50
2022-08-26T05:39:41.357Z,19.60
2022-08-26T05:42:30.190Z,19.50
2022-08-26T05:45:17.142Z,19.60
2022-08-26T05:48:03.916Z,19.70
2022-08-26T05:50:54.580Z,19.90
2022-08-26T05:53:43.953Z,20.10
2022-08-26T05:56:41.984Z,20.80
2022-08-26T05:59:30.092Z,21.70
2022-08-26T06:02:19.105Z,22.20
2022-08-26T06:05:06.346Z,22.70
2022-08-26T06:10:53.527Z,23.30
2022-08-26T06:13:41.341Z,23.50
2022-08-26T06:16:29.205Z,23.40
2022-08-26T06:19:17.224Z,23.40
2022-08-26T06:22:24.057Z,23.20
2022-08-26T06:25:30.083Z,23.40
2022-08-26T06:28:18.139Z,23.80
2022-08-26T06:31:06.040Z,24.80
2022-08-26T06:33:53.959Z,25.60
2022-08-26T06:36:43.881Z,26.00
2022-08-26T06:39:31.784Z,26.70
2022-08-26T06:42:19.145Z,27.30
2022-08-26T06:45:08.633Z,27.80
2022-08-26T06:47:55.442Z,27.60
2022-08-26T06:50:42.346Z,27.80
2022-08-26T06:53:29.332Z,27.70
2022-08-26T06:56:18.858Z,27.70
2022-08-26T06:59:07.240Z,27.70
2022-08-26T07:01:55.938Z,27.60
2022-08-26T07:04:44.121Z,28.00
2022-08-26T07:07:34.650Z,28.60
2022-08-26T07:10:21.089Z,28.80
2022-08-26T07:13:08.047Z,28.70
2022-08-26T07:15:57.262Z,28.90
2022-08-26T07:18:48.455Z,28.80
2022-08-26T07:21:37.832Z,29.20
2022-08-26T07:24:24.611Z,29.60
2022-08-26T07:27:17.779Z,29.70
2022-08-26T07:30:06.677Z,29.50
2022-08-26T07:32:53.274Z,29.40
2022-08-26T07:35:41.321Z,28.90
2022-08-26T07:38:28.288Z,29.40
2022-08-26T07:41:19.903Z,29.80
2022-08-26T07:44:07.281Z,29.60
2022-08-26T07:46:55.642Z,29.60
2022-08-26T07:49:43.532Z,29.80
2022-08-26T07:52:32.175Z,30.30
2022-08-26T07:55:22.853Z,30.40
2022-08-26T07:58:09.702Z,30.30
2022-08-26T08:00:56.680Z,29.70
2022-08-26T08:03:43.370Z,29.00
2022-08-26T08:06:30.268Z,28.70
2022-08-26T08:09:20.031Z,28.70
2022-08-26T08:12:09.418Z,29.00
2022-08-26T08:15:00.828Z,29.00
2022-08-26T08:17:47.276Z,29.20
2022-08-26T08:20:38.299Z,29.60
2022-08-26T08:23:25.262Z,29.80
2022-08-26T08:26:13.701Z,29.70
2022-08-26T08:29:00.106Z,29.60
2022-08-26T08:31:58.227Z,29.80
2022-08-26T08:34:45.508Z,29.80
2022-08-26T08:37:32.283Z,29.90
2022-08-26T08:40:19.546Z,30.70
2022-08-26T08:43:10.561Z,31.00
2022-08-26T08:46:00.242Z,30.70
2022-08-26T08:48:52.081Z,30.30
2022-08-26T08:51:48.034Z,30.10
2022-08-26T08:54:34.549Z,30.00
2022-08-26T08:57:28.747Z,30.20
2022-08-26T09:00:19.327Z,30.30
2022-08-26T09:03:13.256Z,30.50
2022-08-26T09:06:02.640Z,31.00
2022-08-26T09:08:52.266Z,31.40
2022-08-26T09:11:39.113Z,31.40
2022-08-26T09:14:26.652Z,31.50
2022-08-26T09:17:23.021Z,31.60
2022-08-26T09:20:19.067Z,31.90
2022-08-26T09:23:05.772Z,32.30
2022-08-26T09:25:59.906Z,33.20
2022-08-26T09:28:49.216Z,33.60
2022-08-26T09:31:38.857Z,34.00
2022-08-26T09:34:28.401Z,34.40
2022-08-26T09:37:33.123Z,34.70
2022-08-26T09:40:27.570Z,34.60
2022-08-26T09:43:22.275Z,34.90
2022-08-26T09:46:18.795Z,34.90
2022-08-26T09:49:23.343Z,34.90
2022-08-26T09:52:16.782Z,34.90
2022-08-26T09:55:11.098Z,35.20
2022-08-26T09:58:02.250Z,35.20
2022-08-26T10:00:56.361Z,35.30
2022-08-26T10:03:44.539Z,35.40
2022-08-26T10:06:42.243Z,35.60
2022-08-26T10:09:33.277Z,35.80
2022-08-26T10:12:22.860Z,35.90
2022-08-26T10:15:12.749Z,35.80
2022-08-26T10:18:05.437Z,36.00
2022-08-26T10:20:58.674Z,36.20
2022-08-26T10:23:50.242Z,36.00
2022-08-26T10:26:45.546Z,35.80
2022-08-26T10:29:39.190Z,36.00
2022-08-26T10:32:35.097Z,36.20
2022-08-26T10:35:28.759Z,36.30
2022-08-26T10:38:20.629Z,36.10
2022-08-26T10:41:11.662Z,36.10
2022-08-26T10:44:02.644Z,36.20
2022-08-26T10:46:57.484Z,36.10
2022-08-26T10:49:48.937Z,36.10
2022-08-26T10:52:47.893Z,36.20
2022-08-26T10:55:41.043Z,36.30
2022-08-26T10:58:31.440Z,36.80
2022-08-26T11:01:45.368Z,36.90
2022-08-26T11:04:59.194Z,36.60
2022-08-26T11:07:51.383Z,36.50
2022-08-26T11:11:05.618Z,36.30
2022-08-26T11:14:02.035Z,36.30
2022-08-26T11:16:52.463Z,36.50
2022-08-26T11:20:08.925Z,36.40
2022-08-26T11:23:40.290Z,36.50
2022-08-26T11:26:55.449Z,36.50
2022-08-26T11:30:01.041Z,36.60
2022-08-26T11:32:52.371Z,36.30
2022-08-26T11:35:52.260Z,35.60
2022-08-26T11:38:43.260Z,35.70
2022-08-26T11:41:31.791Z,36.00
2022-08-26T11:44:21.537Z,36.30
2022-08-26T11:47:11.699Z,36.10
2022-08-26T11:50:12.587Z,36.40
2022-08-26T11:53:06.351Z,36.60
2022-08-26T11:55:55.072Z,36.60
2022-08-26T11:58:44.585Z,36.80
2022-08-26T12:01:33.381Z,36.90
2022-08-26T12:04:29.562Z,37.10
2022-08-26T12:07:24.166Z,37.20
2022-08-26T12:10:24.312Z,36.90
2022-08-26T12:13:23.906Z,36.90
2022-08-26T12:16:12.928Z,36.70
2022-08-26T12:19:00.470Z,36.80
2022-08-26T12:21:49.825Z,36.50
2022-08-26T12:24:44.126Z,36.50
2022-08-26T12:27:32.335Z,36.00
2022-08-26T12:30:21.575Z,35.90
2022-08-26T12:33:23.090Z,35.70
2022-08-26T12:36:10.985Z,36.00
2022-08-26T12:39:07.147Z,36.00
2022-08-26T12:41:56.656Z,36.00
2022-08-26T12:44:53.126Z,35.90
2022-08-26T12:47:44.095Z,35.80
2022-08-26T12:50:33.609Z,35.70
2022-08-26T12:53:24.673Z,35.40
2022-08-26T12:56:28.188Z,34.90
2022-08-26T12:59:24.962Z,34.90
2022-08-26T13:02:11.782Z,34.90
2022-08-26T13:05:00.884Z,34.80
2022-08-26T13:08:23.405Z,34.70
2022-08-26T13:11:13.645Z,34.60
2022-08-26T13:14:02.537Z,34.70
2022-08-26T13:16:54.953Z,34.60
2022-08-26T13:19:41.993Z,34.50
2022-08-26T13:22:29.859Z,34.30
2022-08-26T13:25:19.630Z,34.00
2022-08-26T13:28:06.468Z,33.90
2022-08-26T13:30:52.905Z,33.70
2022-08-26T13:33:41.551Z,33.60
2022-08-26T13:36:28.437Z,33.60
2022-08-26T13:39:14.765Z,33.60
2022-08-26T13:42:01.293Z,33.50
2022-08-26T13:44:50.579Z,33.40
2022-08-26T13:47:37.462Z,33.30
2022-08-26T13:50:25.328Z,33.40
2022-08-26T13:53:12.150Z,33.40
2022-08-26T13:55:59.582Z,33.40
2022-08-26T13:58:46.223Z,33.40
2022-08-26T14:01:35.039Z,33.40
2022-08-26T14:04:26.943Z,33.40
2022-08-26T14:07:15.274Z,33.40
2022-08-26T14:10:01.812Z,33.50
2022-08-26T14:12:50.741Z,33.60
2022-08-26T14:15:39.125Z,33.50
2022-08-26T14:18:38.500Z,33.50
2022-08-26T14:21:30.331Z,33.40
2022-08-26T14:24:19.056Z,33.50
2022-08-26T14:27:05.766Z,33.40
2022-08-26T14:29:52.585Z,33.40
2022-08-26T14:32:42.525Z,33.30
2022-08-26T14:35:31.663Z,33.20
2022-08-26T14:38:18.378Z,33.00
2022-08-26T14:41:07.093Z,32.80
2022-08-26T14:43:58.025Z,32.60
2022-08-26T14:46:49.554Z,32.30
2022-08-26T14:49:36.450Z,32.20
2022-08-26T14:52:23.075Z,32.00
2022-08-26T14:55:09.910Z,31.70
2022-08-26T14:57:58.130Z,31.60
2022-08-26T15:00:45.013Z,31.50
2022-08-26T15:03:32.062Z,31.50
2022-08-26T15:06:19.052Z,31.50
2022-08-26T15:09:06.961Z,31.50
2022-08-26T15:11:54.451Z,31.50
2022-08-26T15:14:42.884Z,31.60
2022-08-26T15:17:29.437Z,31.60
2022-08-26T15:20:16.504Z,31.60
2022-08-26T15:23:05.956Z,31.40
2022-08-26T15:25:53.083Z,31.30
2022-08-26T15:28:40.421Z,31.20
2022-08-26T15:31:31.869Z,31.10
2022-08-26T15:34:18.689Z,31.10
2022-08-26T15:37:06.089Z,31.00
2022-08-26T15:39:53.728Z,30.90
2022-08-26T15:42:40.425Z,30.90
2022-08-26T15:45:27.513Z,30.60
2022-08-26T15:48:16.266Z,30.60
2022-08-26T15:51:03.002Z,30.50
2022-08-26T15:53:49.793Z,30.50
2022-08-26T15:56:38.355Z,30.60
2022-08-26T15:59:24.938Z,30.20
2022-08-26T16:02:11.898Z,28.20
2022-08-26T16:05:00.418Z,27.70
2022-08-26T16:07:47.021Z,27.20
2022-08-26T16:10:34.342Z,27.20
2022-08-26T16:13:21.401Z,26.90
2022-08-26T16:16:10.010Z,26.80
2022-08-26T16:18:56.609Z,26.50
2022-08-26T16:21:45.705Z,26.20
2022-08-26T16:24:32.313Z,25.80
2022-08-26T16:27:19.322Z,25.60
2022-08-26T16:30:10.905Z,25.50
2022-08-26T16:32:58.562Z,25.60
2022-08-26T16:35:45.738Z,25.60
2022-08-26T16:38:33.950Z,25.70
2022-08-26T16:41:20.937Z,25.70
2022-08-26T16:44:08.732Z,25.60
2022-08-26T16:46:58.519Z,25.20
2022-08-26T16:49:46.750Z,24.60
2022-08-26T16:52:33.129Z,24.10
2022-08-26T16:55:22.036Z,23.30
2022-08-26T16:58:08.613Z,22.40
2022-08-26T17:00:55.451Z,21.90
2022-08-26T17:03:42.017Z,21.70
2022-08-26T17:06:28.536Z,21.80
2022-08-26T17:09:14.926Z,21.90
2022-08-26T17:12:03.264Z,21.80
2022-08-26T17:14:50.021Z,21.70
2022-08-26T17:17:37.188Z,21.80
2022-08-26T17:20:27.915Z,22.00
2022-08-26T17:23:14.642Z,22.10
2022-08-26T17:26:02.484Z,22.10
2022-08-26T17:28:50.873Z,22.20
2022-08-26T17:31:37.728Z,22.00
2022-08-26T17:34:24.896Z,22.00
2022-08-26T17:37:11.830Z,22.00
2022-08-26T17:39:58.765Z,22.00
2022-08-26T17:42:46.624Z,21.40
2022-08-26T17:45:34.913Z,21.10
2022-08-26T17:48:21.686Z,21.10
2022-08-26T17:51:10.994Z,21.20
2022-08-26T17:53:57.758Z,21.00
2022-08-26T17:56:44.327Z,20.90
2022-08-26T17:59:31.307Z,20.90
2022-08-26T18:02:20.238Z,21.00
2022-08-26T18:05:08.253Z,21.20
2022-08-26T18:07:55.118Z,21.40
2022-08-26T18:10:42.586Z,21.60
2022-08-26T18:13:29.442Z,21.70
2022-08-26T18:16:18.079Z,21.70
2022-08-26T18:19:06.710Z,21.90
2022-08-26T18:21:53.489Z,21.90
2022-08-26T18:24:41.403Z,21.90
2022-08-26T18:27:43.481Z,21.60
2022-08-26T18:30:30.304Z,21.70
2022-08-26T18:33:17.235Z,21.90
2022-08-26T18:36:06.150Z,22.00
2022-08-26T18:38:54.014Z,22.00
2022-08-26T18:41:43.035Z,22.00
2022-08-26T18:44:29.913Z,22.00
2022-08-26T18:47:16.885Z,22.10
2022-08-26T18:50:05.383Z,22.20
2022-08-26T18:52:53.543Z,22.20
2022-08-26T18:55:40.921Z,22.20
2022-08-26T18:58:28.410Z,22.30
2022-08-26T19:01:15.819Z,22.30
2022-08-26T19:04:04.412Z,22.20
2022-08-26T19:06:52.818Z,21.80
2022-08-26T19:09:41.197Z,21.60
2022-08-26T19:12:28.618Z,21.50
2022-08-26T19:15:15.145Z,21.30
2022-08-26T19:18:02.278Z,21.20
2022-08-26T19:20:48.941Z,21.30
2022-08-26T19:23:35.825Z,21.20
2022-08-26T19:26:24.995Z,21.00
2022-08-26T19:29:12.211Z,21.20
2022-08-26T19:31:59.270Z,21.20
2022-08-26T19:34:45.898Z,21.30
2022-08-26T19:37:32.567Z,21.50
2022-08-26T19:40:19.636Z,21.70
2022-08-26T19:43:08.657Z,21.90
2022-08-26T19:45:55.651Z,21.80
2022-08-26T19:48:44.050Z,21.80
2022-08-26T19:51:34.488Z,21.80
2022-08-26T19:54:22.566Z,21.70
2022-08-26T19:57:09.458Z,21.70
2022-08-26T19:59:57.333Z,21.80
2022-08-26T20:02:45.044Z,21.70
2022-08-26T20:05:31.990Z,21.60
2022-08-26T20:08:22.144Z,21.40
2022-08-26T20:11:12.845Z,21.40
2022-08-26T20:14:00.457Z,21.50
2022-08-26T20:16:49.337Z,21.70
2022-08-26T20:19:53.720Z,21.80
2022-08-26T20:22:40.444Z,21.80
2022-08-26T20:25:27.189Z,21.80
2022-08-26T20:28:14.106Z,21.90
2022-08-26T20:31:00.627Z,22.00
2022-08-26T20:33:48.749Z,22.00
2022-08-26T20:36:35.799Z,22.10
2022-08-26T20:39:22.691Z,22.30
2022-08-26T20:42:20.094Z,22.30
2022-08-26T20:45:09.328Z,22.40
2022-08-26T20:47:55.913Z,22.40
2022-08-26T20:50:44.261Z,22.30
2022-08-26T20:53:31.312Z,22.20
2022-08-26T20:56:21.702Z,22.20
2022-08-26T20:59:09.573Z,22.30
2022-08-26T21:01:56.482Z,22.20
2022-08-26T21:04:43.319Z,21.90
2022-08-26T21:07:31.513Z,21.90
2022-08-26T21:10:18.404Z,22.00
2022-08-26T21:13:05.326Z,22.10
2022-08-26T21:15:56.052Z,22.00
2022-08-26T21:18:42.674Z,22.10
2022-08-26T21:21:29.777Z,22.10
2022-08-26T21:24:18.517Z,22.10
2022-08-26T21:27:05.114Z,22.10
2022-08-26T21:29:52.015Z,22.20
2022-08-26T21:32:38.915Z,22.10
2022-08-26T21:35:25.343Z,22.20
2022-08-26T21:38:11.810Z,22.20
2022-08-26T21:41:01.690Z,22.20
2022-08-26T21:43:50.266Z,22.10
2022-08-26T21:46:37.589Z,22.20
2022-08-26T21:49:23.865Z,22.30
2022-08-26T21:52:12.838Z,22.20
2022-08-26T21:55:00.596Z,22.00
2022-08-26T21:57:48.606Z,21.80
2022-08-26T22:00:35.493Z,21.50
2022-08-26T22:03:22.129Z,21.20
2022-08-26T22:06:09.010Z,21.10
2022-08-26T22:08:56.276Z,21.10
2022-08-26T22:11:43.949Z,20.90
2022-08-26T22:14:32.162Z,20.60
2022-08-26T22:17:18.808Z,20.40
2022-08-26T22:20:06.683Z,20.10
2022-08-26T22:23:03.104Z,19.90
2022-08-26T22:25:50.373Z,19.90
2022-08-26T22:28:39.221Z,20.00
2022-08-26T22:31:37.374Z,20.00
2022-08-26T22:34:24.827Z,20.00
2022-08-26T22:37:11.819Z,20.30
2022-08-26T22:39:58.722Z,20.30
2022-08-26T22:42:57.898Z,20.50
2022-08-26T22:45:47.582Z,20.50
2022-08-26T22:48:35.520Z,20.60
2022-08-26T22:51:23.033Z,20.60
2022-08-26T22:54:09.922Z,20.60
2022-08-26T22:56:56.954Z,20.80
2022-08-26T22:59:44.010Z,20.80
2022-08-26T23:02:30.421Z,20.70
2022-08-26T23:05:18.376Z,20.70
2022-08-26T23:08:05.451Z,20.70
2022-08-26T23:10:52.873Z,20.80
2022-08-26T23:13:40.415Z,20.90
2022-08-26T23:16:26.871Z,21.00
2022-08-26T23:19:14.794Z,21.00
2022-08-26T23:22:03.118Z,21.00
2022-08-26T23:24:49.990Z,21.10
2022-08-26T23:27:38.152Z,21.10
2022-08-26T23:30:27.029Z,21.10
2022-08-26T23:33:13.905Z,21.20
2022-08-26T23:36:06.658Z,21.30
2022-08-26T23:38:54.390Z,21.30
2022-08-26T23:41:40.994Z,21.20
2022-08-26T23:44:28.509Z,21.10
2022-08-26T23:47:15.614Z,21.20
2022-08-26T23:50:02.857Z,21.20
2022-08-26T23:53:08.594Z,21.20
2022-08-26T23:55:56.784Z,21.00
2022-08-26T23:58:44.085Z,21.00
